Time;durP1;ratioP1;P1;durP2;ratioP2;P2;SDS_P1;SDS_P2;PMS_P1;PMS_P2;Temp;Humidity;BMP_temperature;BMP_pressure;BME280_temperature;BME280_humidity;BME280_pressure;Samples;Min_cycle;Max_cycle;Signal;HPM_P1;HPM_P2
2022/07/10 03:51:10;;;;;;;6.32;1.50;;;13.70;99.90;;;-144.05;64.62;125687.94;6164533;23;20132;-90
2022/07/10 03:53:37;;;;;;;5.40;1.60;;;13.70;99.90;;;-144.05;64.74;125687.94;6136470;23;20033;-90
2022/07/10 03:56:04;;;;;;;6.25;1.70;;;13.60;99.90;;;-144.05;65.04;125687.94;6161610;23;20021;-88
2022/07/10 03:58:30;;;;;;;5.85;2.08;;;13.60;99.90;;;-144.05;65.14;125687.94;6159339;23;20036;-89
2022/07/10 04:00:56;;;;;;;3.83;1.27;;;13.60;99.90;;;-144.05;65.15;125687.94;6159166;23;20009;-91
2022/07/10 04:03:22;;;;;;;8.73;2.00;;;13.70;99.90;;;-144.05;64.97;125687.94;6160533;23;20019;-91
2022/07/10 04:05:48;;;;;;;5.10;1.40;;;13.60;99.90;;;-144.05;64.73;125687.94;6160243;23;20052;-89
2022/07/10 04:08:14;;;;;;;10.80;1.73;;;13.70;99.90;;;-144.05;64.75;125687.94;6159925;23;20016;-91
2022/07/10 04:10:40;;;;;;;7.13;1.20;;;13.70;99.90;;;-144.05;64.72;125687.94;6160369;23;20005;-91
2022/07/10 04:13:07;;;;;;;8.70;1.20;;;13.80;99.90;;;-144.05;64.70;125687.94;6160846;23;20041;-90
2022/07/10 04:15:34;;;;;;;8.90;1.58;;;13.70;99.90;;;-144.05;64.69;125687.94;6165907;23;20025;-89
2022/07/10 04:18:00;;;;;;;5.35;1.70;;;13.80;99.90;;;-144.05;64.57;125687.94;6171992;23;20073;-88
2022/07/10 04:20:26;;;;;;;4.80;1.40;;;13.80;99.90;;;-144.05;64.77;125687.94;6179234;23;20009;-88
2022/07/10 04:22:52;;;;;;;4.32;1.10;;;13.90;99.90;;;-144.05;64.43;125687.94;6177331;23;20008;-89
2022/07/10 04:25:18;;;;;;;8.70;1.17;;;13.90;99.90;;;-144.05;64.33;125687.94;6177563;23;20037;-88
2022/07/10 04:27:44;;;;;;;3.60;1.00;;;13.90;99.90;;;-144.05;64.23;125687.94;6163590;23;20005;-89
2022/07/10 04:30:10;;;;;;;5.82;1.42;;;13.90;99.90;;;-144.05;63.89;125687.94;6133622;23;20032;-88
2022/07/10 04:32:37;;;;;;;8.00;1.90;;;14.00;99.90;;;-144.05;63.85;125687.94;6158150;23;20444;-89
2022/07/10 04:35:03;;;;;;;5.82;1.40;;;14.00;99.90;;;-144.05;64.06;125687.94;6159809;23;20005;-88
2022/07/10 04:37:29;;;;;;;4.10;1.75;;;14.00;99.90;;;-144.05;63.87;125687.94;6158277;23;20009;-90
2022/07/10 04:39:55;;;;;;;6.07;1.20;;;14.00;99.90;;;-144.05;63.87;125687.94;6158444;23;20108;-90
2022/07/10 04:42:21;;;;;;;10.30;1.85;;;14.00;99.90;;;-144.05;63.69;125687.94;6158377;23;20014;-89
2022/07/10 04:44:47;;;;;;;12.32;1.42;;;14.10;99.90;;;-144.05;63.28;125687.94;6158172;23;20444;-89
2022/07/10 04:47:13;;;;;;;4.78;1.27;;;14.20;99.90;;;-144.05;62.80;125687.94;6158942;23;20313;-89
2022/07/10 04:49:38;;;;;;;6.53;1.48;;;14.20;99.90;;;-144.05;62.65;125687.94;6133556;23;20146;-90
2022/07/10 04:52:05;;;;;;;6.80;1.10;;;14.20;99.90;;;-144.05;62.69;125687.94;6158587;23;20013;-89
2022/07/10 04:54:32;;;;;;;7.82;1.50;;;14.30;99.90;;;-144.05;62.50;125687.94;6158596;23;20005;-89
2022/07/10 04:56:57;;;;;;;3.88;1.23;;;14.30;99.90;;;-144.05;62.64;125687.94;6133160;23;20014;-89
2022/07/10 04:59:24;;;;;;;3.97;1.20;;;14.30;99.90;;;-144.05;62.34;125687.94;6158227;23;20419;-90
2022/07/10 05:01:50;;;;;;;7.25;1.40;;;14.40;99.90;;;-144.05;61.61;125687.94;6134526;23;20009;-91
2022/07/10 05:04:16;;;;;;;8.80;1.60;;;14.40;99.90;;;-144.05;61.58;125687.94;6159610;23;20016;-86
2022/07/10 05:06:42;;;;;;;7.18;1.58;;;14.40;99.90;;;-144.05;61.48;125687.94;6160904;23;20021;-89
2022/07/10 05:09:08;;;;;;;9.05;2.00;;;14.40;99.90;;;-144.05;61.07;125687.94;6137174;23;20041;-93
2022/07/10 05:11:37;;;;;;;7.25;1.50;;;14.40;99.90;;;-144.05;60.98;125687.94;6138023;23;20056;-89
2022/07/10 05:14:04;;;;;;;8.63;1.63;;;14.40;99.90;;;-144.05;61.11;125687.94;6162603;23;20013;-89
2022/07/10 05:16:30;;;;;;;5.55;1.10;;;14.40;99.90;;;-144.05;61.24;125687.94;6163354;23;20052;-88
2022/07/10 05:18:56;;;;;;;4.75;1.00;;;14.50;99.90;;;-144.05;61.01;125687.94;6137799;23;20069;-89
2022/07/10 05:21:22;;;;;;;5.80;1.38;;;14.50;99.90;;;-144.05;60.73;125687.94;6162605;23;20009;-91
2022/07/10 05:23:51;;;;;;;4.93;1.20;;;14.60;99.90;;;-144.05;60.42;125687.94;6162760;23;20036;-87
2022/07/10 05:26:17;;;;;;;3.90;1.10;;;14.60;99.90;;;-144.05;60.16;125687.94;6136185;23;20010;-86
2022/07/10 05:28:43;;;;;;;3.63;1.23;;;14.60;99.90;;;-144.05;60.08;125687.94;6146166;23;20005;-86
2022/07/10 05:31:12;;;;;;;6.80;1.33;;;14.60;99.90;;;-144.05;59.95;125687.94;6177751;23;20020;-89
2022/07/10 05:33:40;;;;;;;3.88;1.40;;;14.70;99.90;;;-144.05;59.47;125687.94;6179248;23;20009;-89
2022/07/10 05:36:09;;;;;;;9.02;1.75;;;14.80;99.90;;;-144.05;59.62;125687.94;6178251;23;20006;-91
2022/07/10 05:38:35;;;;;;;6.22;1.58;;;14.90;99.90;;;-144.05;58.91;125687.94;6164303;23;20009;-90
2022/07/10 05:41:03;;;;;;;9.02;1.52;;;14.90;99.90;;;-144.05;58.80;125687.94;6162611;23;20010;-89
2022/07/10 05:43:36;;;;;;;7.32;1.63;;;15.00;99.90;;;-144.05;58.17;125687.94;6162865;23;20036;-89
2022/07/10 05:46:03;;;;;;;6.85;1.42;;;15.10;99.90;;;-144.05;57.65;125687.94;6162470;23;20017;-89
2022/07/10 05:48:29;;;;;;;4.15;1.67;;;15.20;99.90;;;-144.05;57.51;125687.94;6162374;23;20009;-89
2022/07/10 05:50:57;;;;;;;4.55;1.23;;;15.30;99.90;;;-144.05;57.26;125687.94;6161743;23;20013;-89
2022/07/10 05:53:23;;;;;;;5.50;1.33;;;15.40;99.90;;;-144.05;57.80;125687.94;6161170;23;20017;-89
2022/07/10 05:55:49;;;;;;;6.20;1.20;;;15.30;99.90;;;-144.05;57.74;125687.94;6162232;23;20010;-90
2022/07/10 05:58:16;;;;;;;6.50;1.50;;;15.40;99.90;;;-144.05;57.29;125687.94;6160953;23;20005;-91
2022/07/10 06:00:43;;;;;;;5.63;1.23;;;15.30;99.90;;;-144.05;57.41;125687.94;6160823;23;20364;-88
2022/07/10 06:03:10;;;;;;;4.47;1.10;;;15.30;99.90;;;-144.05;57.62;125687.94;6160971;23;20025;-91
2022/07/10 06:05:36;;;;;;;5.75;1.08;;;15.30;99.90;;;-144.05;57.88;125687.94;6162087;23;20013;-89
2022/07/10 06:08:03;;;;;;;8.02;1.25;;;15.20;99.90;;;-144.05;56.83;125687.94;6163476;23;20035;-89
2022/07/10 06:10:32;;;;;;;5.68;1.30;;;15.50;99.90;;;-144.05;55.24;125687.94;6165840;23;20016;-89
2022/07/10 06:13:00;;;;;;;6.25;1.58;;;15.80;99.90;;;-144.05;53.66;125687.94;6144208;23;20005;-91
2022/07/10 06:15:26;;;;;;;5.80;1.42;;;16.10;99.90;;;-144.05;52.79;125687.94;6173505;23;20006;-87
2022/07/10 06:17:57;;;;;;;7.32;1.73;;;16.40;99.90;;;-144.05;51.72;125687.94;6182500;23;20013;-88
2022/07/10 06:20:27;;;;;;;10.05;1.73;;;16.90;99.90;;;-144.05;50.75;125687.94;6173590;23;20015;-89
2022/07/10 06:22:54;;;;;;;5.40;1.40;;;17.40;99.90;;;-144.05;49.93;125687.94;6141297;23;20009;-90
2022/07/10 06:25:20;;;;;;;5.22;1.27;;;17.50;99.90;;;-144.05;49.24;125687.94;6167444;23;20010;-89
2022/07/10 06:27:46;;;;;;;5.90;1.40;;;17.60;99.90;;;-144.05;48.04;125687.94;6166918;23;20013;-88
2022/07/10 06:30:13;;;;;;;7.28;1.48;;;17.40;99.90;;;-144.05;48.92;125687.94;6142366;23;20404;-88
2022/07/10 06:32:40;;;;;;;7.65;1.20;;;17.10;99.90;;;-144.05;49.47;125687.94;6142015;23;20016;-89
2022/07/10 06:35:12;;;;;;;5.85;1.15;;;16.90;99.90;;;-144.05;50.05;125687.94;6168364;23;20005;-87
2022/07/10 06:37:38;;;;;;;5.35;1.50;;;16.70;99.90;;;-144.05;49.83;125687.94;6141879;23;20006;-89
2022/07/10 06:40:06;;;;;;;3.38;0.95;;;16.60;99.90;;;-144.05;50.54;125687.94;6164922;23;20356;-91
2022/07/10 06:42:32;;;;;;;7.07;1.08;;;16.50;99.90;;;-144.05;50.93;125687.94;6164413;23;20029;-89
2022/07/10 06:44:59;;;;;;;4.43;0.93;;;16.60;99.90;;;-144.05;50.61;125687.94;6164978;23;20006;-87
2022/07/10 06:50:16;;;;;;;5.47;1.35;;;17.10;99.90;;;-144.05;48.26;125687.94;6166752;23;20514;-91
2022/07/10 06:52:43;;;;;;;6.65;1.08;;;17.40;99.90;;;-144.05;47.33;125687.94;6139559;23;20013;-90
2022/07/10 06:55:13;;;;;;;5.18;1.13;;;17.40;99.90;;;-144.05;46.79;125687.94;6165832;23;20039;-90
2022/07/10 06:57:39;;;;;;;8.15;1.30;;;17.40;99.90;;;-144.05;47.46;125687.94;6165205;23;20009;-88
2022/07/10 07:00:10;;;;;;;5.72;0.82;;;17.30;99.90;;;-144.05;48.14;125687.94;6164698;23;20024;-88
2022/07/10 07:02:39;;;;;;;5.28;0.85;;;17.10;99.90;;;-144.05;48.75;125687.94;6140563;23;20033;-88
2022/07/10 07:05:07;;;;;;;6.25;1.60;;;16.80;99.90;;;-144.05;49.66;125687.94;6165217;23;20013;-88
2022/07/10 07:07:35;;;;;;;7.78;1.65;;;16.60;99.90;;;-144.05;49.78;125687.94;6140082;23;20006;-88
2022/07/10 07:10:03;;;;;;;4.50;1.13;;;16.40;99.90;;;-144.05;50.24;125687.94;6164288;23;20073;-89
2022/07/10 07:12:29;;;;;;;6.85;1.02;;;16.30;99.90;;;-144.05;50.84;125687.94;6163830;23;20021;-88
2022/07/10 07:14:56;;;;;;;6.35;1.13;;;16.10;99.90;;;-144.05;51.08;125687.94;6165063;23;20352;-89
2022/07/10 07:17:23;;;;;;;4.78;1.20;;;16.00;99.90;;;-144.05;51.86;125687.94;6138969;23;20033;-88
2022/07/10 07:25:27;;;;;;;12.07;1.50;;;15.90;99.90;;;-144.05;53.21;125687.94;6167785;23;20059;-86
2022/07/10 07:27:56;;;;;;;10.18;1.23;;;15.80;99.90;;;-144.05;52.94;125687.94;6180884;23;20016;-89
2022/07/10 07:30:42;;;;;;;9.95;1.42;;;15.80;99.90;;;-144.05;53.81;125687.94;6164733;23;20096;-87
2022/07/10 07:33:11;;;;;;;6.40;1.40;;;15.80;99.90;;;-144.05;54.40;125687.94;6114296;23;20025;-89
2022/07/10 07:35:39;;;;;;;6.45;1.45;;;15.70;99.90;;;-144.05;54.51;125687.94;6162228;23;19997;-87
2022/07/10 07:38:06;;;;;;;9.13;1.35;;;15.70;99.90;;;-144.05;54.71;125687.94;6166898;23;19994;-88
2022/07/10 07:40:39;;;;;;;14.90;1.75;;;15.60;99.90;;;-144.05;54.85;125687.94;6164621;23;20009;-90
2022/07/10 07:43:05;;;;;;;7.85;1.42;;;15.60;99.90;;;-144.05;54.32;125687.94;6161020;23;20009;-89
2022/07/10 07:45:31;;;;;;;7.57;1.20;;;15.50;99.90;;;-144.05;54.37;125687.94;6158473;23;20016;-86
2022/07/10 07:47:59;;;;;;;5.13;1.33;;;15.50;99.90;;;-144.05;54.51;125687.94;6161043;23;20439;-90
2022/07/10 07:50:31;;;;;;;7.78;1.25;;;15.60;99.90;;;-144.05;54.65;125687.94;6161900;23;20013;-90
2022/07/10 07:53:01;;;;;;;5.05;1.08;;;15.50;99.90;;;-144.05;54.85;125687.94;6164385;23;20459;-89
2022/07/10 07:55:30;;;;;;;7.65;1.55;;;15.40;99.90;;;-144.05;54.87;125687.94;6165699;23;20010;-90
2022/07/10 07:57:57;;;;;;;8.52;1.30;;;15.40;99.90;;;-144.05;54.93;125687.94;6163604;23;20010;-88
2022/07/10 08:00:34;;;;;;;3.15;0.85;;;15.50;99.90;;;-144.05;55.07;125687.94;6161975;23;20041;-87
2022/07/10 08:03:00;;;;;;;3.72;0.77;;;15.60;99.90;;;-144.05;54.66;125687.94;6165030;23;20037;-90
2022/07/10 08:05:28;;;;;;;3.80;1.08;;;15.50;99.90;;;-144.05;55.07;125687.94;6160672;23;20068;-89
2022/07/10 08:07:59;;;;;;;7.32;1.10;;;15.60;99.90;;;-144.05;55.56;125687.94;6159881;23;20029;-88
2022/07/10 08:10:27;;;;;;;6.65;1.45;;;15.60;99.90;;;-144.05;55.54;125687.94;6160448;23;20043;-91
2022/07/10 08:12:53;;;;;;;7.80;1.13;;;15.60;99.90;;;-144.05;56.09;125687.94;6160667;23;20009;-91
2022/07/10 08:15:22;;;;;;;4.32;0.95;;;15.50;99.90;;;-144.05;56.72;125687.94;6159705;23;20025;-88
2022/07/10 08:17:55;;;;;;;3.42;0.98;;;15.30;99.90;;;-144.05;57.20;125687.94;6135344;23;20009;-89
2022/07/10 08:20:22;;;;;;;6.20;1.05;;;15.20;99.90;;;-144.05;57.85;125687.94;6160286;23;20009;-92
2022/07/10 08:22:53;;;;;;;4.85;1.58;;;15.20;99.90;;;-144.05;57.97;125687.94;6166012;23;20040;-90
2022/07/10 08:25:23;;;;;;;5.07;1.13;;;15.20;99.90;;;-144.05;57.24;125687.94;6167826;23;20013;-92
2022/07/10 08:27:52;;;;;;;8.40;1.50;;;15.30;99.90;;;-144.05;57.41;125687.94;6166499;23;20165;-88
2022/07/10 08:30:18;;;;;;;8.90;1.67;;;15.30;99.90;;;-144.05;57.38;125687.94;6140515;23;20016;-89
2022/07/10 08:32:45;;;;;;;5.40;1.17;;;15.30;99.90;;;-144.05;57.46;125687.94;6165610;23;20005;-86
2022/07/10 08:35:15;;;;;;;8.68;1.48;;;15.40;99.90;;;-144.05;57.05;125687.94;6163362;23;20009;-91
2022/07/10 08:37:53;;;;;;;8.20;1.55;;;15.40;99.90;;;-144.05;57.10;125687.94;6164457;23;20020;-88
2022/07/10 08:40:37;;;;;;;6.45;1.27;;;15.50;99.90;;;-144.05;57.08;125687.94;6172717;23;20017;-89
2022/07/10 08:43:18;;;;;;;8.50;1.20;;;15.60;99.90;;;-144.05;56.62;125687.94;6172300;23;20014;-89
2022/07/10 08:45:50;;;;;;;6.03;0.93;;;15.80;99.90;;;-144.05;56.23;125687.94;6169290;23;20016;-88
2022/07/10 08:48:24;;;;;;;8.88;1.58;;;16.00;99.90;;;-144.05;55.96;125687.94;6168434;23;20008;-88
2022/07/10 08:51:30;;;;;;;8.57;1.10;;;16.10;99.90;;;-144.05;56.24;125687.94;6170986;23;20006;-88
2022/07/10 08:54:00;;;;;;;6.38;1.67;;;16.00;99.90;;;-144.05;57.17;125687.94;6144931;23;20014;-90
2022/07/10 08:56:27;;;;;;;9.85;2.05;;;16.00;99.90;;;-144.05;57.58;125687.94;6168133;23;20056;-88
2022/07/10 08:58:55;;;;;;;7.07;2.13;;;15.90;99.90;;;-144.05;57.39;125687.94;6165977;23;20037;-87
2022/07/10 09:01:23;;;;;;;4.72;1.80;;;15.90;99.90;;;-144.05;57.87;125687.94;6169999;23;19993;-87
2022/07/10 09:03:50;;;;;;;7.93;1.63;;;15.90;99.90;;;-144.05;58.56;125687.94;6168501;23;20013;-89
2022/07/10 09:06:17;;;;;;;7.13;1.50;;;15.80;99.90;;;-144.05;59.02;125687.94;6169392;23;20001;-89
2022/07/10 09:09:07;;;;;;;5.63;1.40;;;15.70;99.90;;;-144.05;60.15;125687.94;6137301;23;20025;-88
2022/07/10 09:11:34;;;;;;;6.25;1.73;;;15.70;99.90;;;-144.05;60.66;125687.94;6165607;23;20002;-86
2022/07/10 09:14:07;;;;;;;5.47;1.90;;;15.70;99.90;;;-144.05;61.91;125687.94;6172160;23;20009;-91
2022/07/10 09:16:37;;;;;;;8.02;2.05;;;15.50;99.90;;;-144.05;61.69;125687.94;6176182;23;20048;-87
2022/07/10 09:19:29;;;;;;;7.70;1.55;;;15.50;99.90;;;-144.05;62.54;125687.94;6169574;23;20056;-88
2022/07/10 09:22:07;;;;;;;8.75;1.83;;;15.60;99.90;;;-144.05;64.15;125687.94;6174285;23;20036;-86
2022/07/10 09:24:44;;;;;;;4.90;1.73;;;15.50;99.90;;;-144.05;64.89;125687.94;6156988;23;20045;-86
2022/07/10 09:27:15;;;;;;;7.40;1.85;;;15.50;99.90;;;-144.05;64.59;125687.94;6170818;23;20074;-87
2022/07/10 09:29:57;;;;;;;11.98;2.67;;;15.60;99.90;;;-144.05;64.39;125687.94;6163037;23;20033;-87
2022/07/10 09:32:24;;;;;;;11.40;2.22;;;15.70;99.90;;;-144.05;62.90;125687.94;6137129;23;20009;-87
2022/07/10 09:36:04;;;;;;;7.22;2.10;;;15.80;99.90;;;-144.05;62.69;125687.94;6136719;23;20005;-88
2022/07/10 09:37:44;;;;;;;6.90;1.63;;;15.90;99.90;;;-144.05;62.01;125687.94;6172151;23;20010;-87
2022/07/10 09:40:10;;;;;;;6.60;1.92;;;16.20;99.90;;;-144.05;61.62;125687.94;6155108;23;20024;-89
2022/07/10 09:42:39;;;;;;;9.93;2.42;;;16.20;99.90;;;-144.05;61.00;125687.94;6148855;23;20044;-89
2022/07/10 09:45:12;;;;;;;5.15;2.20;;;16.30;99.90;;;-144.05;61.11;125687.94;6166738;23;20022;-90
2022/07/10 09:47:51;;;;;;;8.48;2.47;;;16.40;99.90;;;-144.05;61.47;125687.94;6163992;23;20006;-87
2022/07/10 09:50:36;;;;;;;5.32;2.30;;;16.40;99.90;;;-144.05;60.71;125687.94;6141835;23;20002;-91
2022/07/10 09:53:12;;;;;;;8.07;1.92;;;16.40;99.90;;;-144.05;60.76;125687.94;6170515;23;20069;-92
2022/07/10 09:55:38;;;;;;;5.13;2.00;;;16.50;99.90;;;-144.05;60.22;125687.94;6171360;23;20040;-90
2022/07/10 09:58:09;;;;;;;5.90;1.90;;;16.50;99.90;;;-144.05;60.99;125687.94;6176122;23;20013;-89
2022/07/10 10:00:42;;;;;;;5.20;2.20;;;16.50;99.90;;;-144.05;61.20;125687.94;6174283;23;20013;-90
2022/07/10 10:03:14;;;;;;;7.65;1.95;;;16.50;99.90;;;-144.05;61.72;125687.94;6166204;23;20348;-88
2022/07/10 10:06:15;;;;;;;9.88;2.55;;;16.60;99.90;;;-144.05;61.65;125687.94;6168515;23;20013;-92
2022/07/10 10:08:55;;;;;;;4.07;1.65;;;16.60;99.90;;;-144.05;61.50;125687.94;6170238;23;20006;-88
2022/07/10 10:11:27;;;;;;;5.97;1.85;;;16.60;99.90;;;-144.05;62.03;125687.94;6144844;23;20025;-87
2022/07/10 10:13:54;;;;;;;5.57;2.33;;;16.80;99.90;;;-144.05;61.72;125687.94;6145005;23;20014;-91
2022/07/10 10:16:21;;;;;;;10.00;2.70;;;16.80;99.90;;;-144.05;61.68;125687.94;6170210;23;20005;-89
2022/07/10 10:21:38;;;;;;;6.18;2.13;;;17.10;99.90;;;-144.05;60.16;125687.94;6171734;23;20020;-89
2022/07/10 10:24:05;;;;;;;5.80;2.10;;;17.20;99.90;;;-144.05;59.40;125687.94;6171099;23;20006;-88
2022/07/10 10:26:31;;;;;;;4.22;1.90;;;17.30;99.90;;;-144.05;58.88;125687.94;6171406;23;20021;-88
2022/07/10 10:29:02;;;;;;;2.55;1.67;;;17.50;99.90;;;-144.05;57.91;125687.94;6170709;23;20077;-88
2022/07/10 10:31:31;;;;;;;4.85;1.98;;;17.60;99.90;;;-144.05;58.73;125687.94;6147685;23;20014;-89
2022/07/10 10:34:00;;;;;;;3.83;1.52;;;17.40;99.90;;;-144.05;60.33;125687.94;6171075;23;20009;-86
2022/07/10 10:36:47;;;;;;;2.92;1.83;;;17.10;99.90;;;-144.05;61.55;125687.94;6169348;23;20028;-90
2022/07/10 10:39:21;;;;;;;3.72;2.20;;;17.00;99.90;;;-144.05;61.78;125687.94;6169904;23;20395;-88
2022/07/10 10:41:54;;;;;;;5.05;2.00;;;16.90;99.90;;;-144.05;62.34;125687.94;6171172;23;20013;-91
2022/07/10 10:44:28;;;;;;;4.20;1.90;;;16.90;99.90;;;-144.05;62.23;125687.94;6165762;23;20009;-93
2022/07/10 10:47:06;;;;;;;2.40;2.20;;;16.70;99.90;;;-144.05;62.70;125687.94;6166047;23;20006;-89
2022/07/10 10:49:59;;;;;;;3.92;2.70;;;16.70;99.90;;;-144.05;63.10;125687.94;6167443;23;20440;-89
2022/07/10 10:52:26;;;;;;;5.28;2.78;;;16.50;99.90;;;-144.05;63.54;125687.94;6146439;23;20009;-91
2022/07/10 10:54:59;;;;;;;6.70;2.85;;;16.50;99.90;;;-144.05;63.55;125687.94;6177779;23;20005;-89
2022/07/10 10:57:31;;;;;;;4.32;2.80;;;16.50;99.90;;;-144.05;62.54;125687.94;6154226;23;20010;-88
2022/07/10 10:59:59;;;;;;;3.83;2.50;;;16.60;99.90;;;-144.05;63.37;125687.94;6150714;23;20522;-88
2022/07/10 11:02:36;;;;;;;4.15;2.78;;;16.60;99.90;;;-144.05;63.25;125687.94;6164248;23;20532;-90
2022/07/10 11:05:18;;;;;;;3.80;2.67;;;16.70;99.90;;;-144.05;63.85;125687.94;6139698;23;20010;-88
2022/07/10 11:08:05;;;;;;;3.65;1.80;;;16.80;99.90;;;-144.05;62.78;125687.94;6140173;23;20005;-88
2022/07/10 11:10:37;;;;;;;4.85;2.03;;;17.00;99.90;;;-144.05;61.26;125687.94;6163349;23;20006;-89
2022/07/10 11:13:20;;;;;;;5.57;2.20;;;17.20;99.90;;;-144.05;61.17;125687.94;6139721;23;20010;-87
2022/07/10 11:15:59;;;;;;;6.35;1.95;;;17.10;99.90;;;-144.05;60.99;125687.94;6140318;23;20009;-86
2022/07/10 11:18:28;;;;;;;5.53;2.95;;;17.20;99.90;;;-144.05;61.18;125687.94;6164472;23;20015;-86
2022/07/10 11:20:54;;;;;;;8.48;4.32;;;17.40;99.90;;;-144.05;59.46;125687.94;6182658;23;20041;-83
2022/07/10 11:24:21;;;;;;;3.72;3.08;;;17.60;99.90;;;-144.05;58.80;125687.94;6169688;23;20006;-86
2022/07/10 11:27:12;;;;;;;5.97;2.72;;;17.90;99.90;;;-144.05;57.56;125687.94;6163456;23;20049;-86
2022/07/10 11:29:41;;;;;;;7.30;3.50;;;18.20;99.90;;;-144.05;57.24;125687.94;6165757;23;20005;-86
2022/07/10 11:32:27;;;;;;;9.13;4.20;;;18.40;99.90;;;-144.05;55.83;125687.94;6144678;23;20013;-87
2022/07/10 11:34:56;;;;;;;5.57;4.30;;;18.50;99.90;;;-144.05;55.61;125687.94;6145035;23;20035;-85
2022/07/10 11:37:28;;;;;;;8.52;5.10;;;18.60;99.90;;;-144.05;55.62;125687.94;6170074;23;20021;-86
2022/07/10 11:40:40;;;;;;;6.78;4.55;;;18.70;99.90;;;-144.05;56.01;125687.94;6170955;23;20008;-90
2022/07/10 11:43:09;;;;;;;4.95;4.40;;;18.80;99.90;;;-144.05;55.46;125687.94;6168876;23;20009;-87
2022/07/10 11:45:44;;;;;;;5.70;4.03;;;19.10;99.90;;;-144.05;53.85;125687.94;6143496;23;20005;-90
2022/07/10 11:48:54;;;;;;;4.85;4.35;;;19.30;99.90;;;-144.05;54.22;125687.94;6167791;23;20011;-90
2022/07/10 11:51:44;;;;;;;4.88;3.55;;;19.00;99.90;;;-144.05;54.61;125687.94;6140876;23;20035;-88
2022/07/10 11:54:22;;;;;;;4.63;3.63;;;18.80;99.90;;;-144.05;55.13;125687.94;6167412;23;20018;-90
2022/07/10 11:56:52;;;;;;;5.40;3.75;;;18.50;99.90;;;-144.05;56.59;125687.94;6165756;23;20424;-88
2022/07/10 11:59:26;;;;;;;3.42;3.13;;;18.20;99.90;;;-144.05;57.68;125687.94;6167538;23;20014;-88
2022/07/10 12:01:55;;;;;;;4.47;3.47;;;18.00;99.90;;;-144.05;59.43;125687.94;6164979;23;20013;-89
2022/07/10 12:04:26;;;;;;;5.53;3.70;;;18.00;99.90;;;-144.05;60.35;125687.94;6165931;23;20035;-91
2022/07/10 12:06:55;;;;;;;4.80;3.83;;;18.00;99.90;;;-144.05;59.63;125687.94;6168857;23;20005;-88
2022/07/10 12:09:24;;;;;;;4.85;3.70;;;18.20;99.90;;;-144.05;57.85;125687.94;6170211;23;20025;-91
2022/07/10 12:12:08;;;;;;;7.78;4.18;;;18.60;99.90;;;-144.05;56.61;125687.94;6167578;23;20006;-90
2022/07/10 12:14:35;;;;;;;5.13;3.80;;;18.50;99.90;;;-144.05;56.50;125687.94;6166599;23;20017;-89
2022/07/10 12:17:12;;;;;;;6.22;3.80;;;18.70;99.90;;;-144.05;56.71;125687.94;6167040;23;20040;-88
2022/07/10 12:19:40;;;;;;;5.28;3.67;;;18.50;99.90;;;-144.05;57.84;125687.94;6143486;23;20118;-86
2022/07/10 12:22:07;;;;;;;5.43;3.50;;;18.40;99.90;;;-144.05;59.65;125687.94;6172442;23;19999;-88
2022/07/10 12:24:38;;;;;;;6.65;3.90;;;18.20;99.90;;;-144.05;62.07;125687.94;6173144;23;20010;-87
2022/07/10 12:27:11;;;;;;;6.80;3.85;;;18.00;99.90;;;-144.05;65.53;125687.94;6176143;23;20012;-87
2022/07/10 12:29:38;;;;;;;6.32;3.00;;;17.60;99.90;;;-144.05;66.32;125687.94;6144936;23;20462;-87
2022/07/10 12:32:19;;;;;;;3.78;3.05;;;17.40;99.90;;;-144.05;67.93;125687.94;6170747;23;20032;-87
2022/07/10 12:34:50;;;;;;;5.63;3.53;;;17.10;99.90;;;-144.05;69.25;125687.94;6170669;23;20005;-87
2022/07/10 12:37:16;;;;;;;4.32;3.85;;;17.10;99.90;;;-144.05;69.15;125687.94;6167604;23;20092;-87
2022/07/10 12:39:54;;;;;;;2.70;2.50;;;17.10;99.90;;;-144.05;69.97;125687.94;6167167;23;20009;-86
2022/07/10 12:42:32;;;;;;;4.03;3.15;;;17.30;99.90;;;-144.05;70.76;125687.94;6164630;23;20010;-87
2022/07/10 12:45:15;;;;;;;4.22;2.67;;;17.50;99.90;;;-144.05;71.64;125687.94;6167304;23;20013;-89
2022/07/10 12:47:50;;;;;;;2.33;1.88;;;17.90;99.90;;;-144.05;69.53;125687.94;6165315;23;20033;-87
2022/07/10 12:50:28;;;;;;;3.58;1.73;;;18.20;99.90;;;-144.05;66.90;125687.94;6166047;23;20411;-89
2022/07/10 12:53:28;;;;;;;2.00;1.40;;;18.70;99.90;;;-144.05;65.31;125687.94;6171044;23;20004;-89
2022/07/10 12:56:40;;;;;;;2.05;1.50;;;19.00;99.90;;;-144.05;65.72;125687.94;6122815;23;20092;-86
2022/07/10 13:19:35;;;;;;;2.70;1.02;;;19.50;99.90;;;-144.05;60.55;125687.94;5712998;25;20025;-89
2022/07/10 13:22:08;;;;;;;1.80;1.10;;;19.50;99.90;;;-144.05;62.03;125687.94;5792776;24;20019;-89
2022/07/10 13:25:17;;;;;;;1.15;0.90;;;19.20;99.90;;;-144.05;62.04;125687.94;5926450;24;20020;-91
2022/07/10 13:27:44;;;;;;;1.08;0.73;;;19.30;99.90;;;-144.05;60.09;125687.94;5896740;24;20004;-86
2022/07/10 13:30:35;;;;;;;1.15;0.90;;;19.80;99.90;;;-144.05;58.24;125687.94;5967250;23;20063;-89
2022/07/10 13:33:02;;;;;;;1.85;0.88;;;20.30;99.90;;;-144.05;56.16;125687.94;6145217;23;20033;-89
2022/07/10 13:35:33;;;;;;;2.20;0.85;;;20.80;99.90;;;-144.05;53.70;125687.94;6141246;23;20069;-89
2022/07/10 13:38:04;;;;;;;0.98;0.50;;;21.00;99.90;;;-144.05;54.25;125687.94;6170822;23;20119;-87
2022/07/10 13:40:37;;;;;;;0.75;0.50;;;21.00;99.90;;;-144.05;52.22;125687.94;6169162;23;20040;-90
2022/07/10 13:43:05;;;;;;;2.00;0.80;;;20.90;99.90;;;-144.05;53.35;125687.94;6168955;23;20013;-91
2022/07/10 13:45:47;;;;;;;0.65;0.40;;;20.40;99.90;;;-144.05;55.62;125687.94;6171291;23;20012;-89
2022/07/10 13:48:19;;;;;;;2.22;1.05;;;20.10;99.90;;;-144.05;57.29;125687.94;6174159;23;20059;-89
2022/07/10 13:50:50;;;;;;;2.83;1.00;;;19.90;99.90;;;-144.05;58.02;125687.94;6166387;23;20013;-90
2022/07/10 13:53:17;;;;;;;5.57;3.25;;;19.70;99.90;;;-144.05;58.19;125687.94;6165557;23;20021;-90
2022/07/10 13:55:44;;;;;;;2.97;2.20;;;19.40;99.90;;;-144.05;59.11;125687.94;6163422;23;20006;-90
2022/07/10 13:58:15;;;;;;;1.50;1.02;;;19.40;99.90;;;-144.05;58.04;125687.94;6160572;23;20357;-88
2022/07/10 14:00:47;;;;;;;5.40;4.90;;;19.40;99.90;;;-144.05;58.94;125687.94;6137386;23;20459;-91
2022/07/10 14:03:13;;;;;;;4.50;3.55;;;19.40;99.90;;;-144.05;59.13;125687.94;6165102;23;20040;-89
2022/07/10 14:05:40;;;;;;;5.15;3.17;;;19.40;99.90;;;-144.05;57.97;125687.94;6161635;23;20002;-90
2022/07/10 14:08:06;;;;;;;19.80;12.73;;;19.60;99.90;;;-144.05;57.55;125687.94;6161214;23;20032;-89
2022/07/10 14:10:32;;;;;;;11.05;7.57;;;19.50;99.90;;;-144.05;57.20;125687.94;6163646;23;20005;-88
2022/07/10 14:12:58;;;;;;;9.65;7.35;;;19.60;99.90;;;-144.05;56.98;125687.94;6142302;23;20107;-88
2022/07/10 14:15:26;;;;;;;3.53;2.60;;;19.70;99.90;;;-144.05;56.17;125687.94;6165052;23;20009;-86
2022/07/10 14:17:52;;;;;;;1.85;1.05;;;19.90;99.90;;;-144.05;54.68;125687.94;6145819;23;20028;-88
2022/07/10 14:20:18;;;;;;;9.43;8.48;;;20.00;99.90;;;-144.05;53.21;125687.94;6165583;23;20033;-87
2022/07/10 14:22:46;;;;;;;1.55;1.00;;;19.90;99.90;;;-144.05;53.49;125687.94;6164842;23;20017;-86
2022/07/10 14:25:13;;;;;;;12.02;9.07;;;19.80;99.90;;;-144.05;53.09;125687.94;6161103;23;20012;-84
2022/07/10 14:27:39;;;;;;;4.25;2.25;;;19.80;99.90;;;-144.05;52.97;125687.94;6168755;23;20006;-88
2022/07/10 14:30:07;;;;;;;3.25;1.50;;;20.00;99.90;;;-144.05;52.12;125687.94;6169768;23;20427;-89
2022/07/10 14:32:42;;;;;;;1.63;0.63;;;20.00;99.90;;;-144.05;52.48;125687.94;6144112;23;20060;-89
2022/07/10 14:35:08;;;;;;;1.58;0.95;;;19.90;99.90;;;-144.05;52.97;125687.94;6163911;23;20005;-90
2022/07/10 14:37:36;;;;;;;3.17;1.42;;;19.60;99.90;;;-144.05;54.11;125687.94;6168287;23;20064;-86
2022/07/10 14:40:31;;;;;;;3.35;1.38;;;19.50;99.90;;;-144.05;55.14;125687.94;6165867;23;20012;-87